sensor_id;sensor_type;location;lat;lon;timestamp;temperature;humidity
22635;DHT22;11484;50.858;4.384;2024-01-11T00:02:23;-1.70;99.90
22635;DHT22;11484;50.858;4.384;2024-01-11T00:04:49;-1.80;99.90
22635;DHT22;11484;50.858;4.384;2024-01-11T00:07:14;-1.80;99.90
22635;DHT22;11484;50.858;4.384;2024-01-11T00:09:43;-1.90;99.90
22635;DHT22;11484;50.858;4.384;2024-01-11T00:12:09;-2.00;99.90
22635;DHT22;11484;50.858;4.384;2024-01-11T00:14:35;-1.90;99.90
22635;DHT22;11484;50.858;4.384;2024-01-11T00:17:01;-2.00;99.90
22635;DHT22;11484;50.858;4.384;2024-01-11T00:19:27;-2.00;99.90
22635;DHT22;11484;50.858;4.384;2024-01-11T00:21:53;-2.00;99.90
22635;DHT22;11484;50.858;4.384;2024-01-11T00:24:19;-2.00;99.90
22635;DHT22;11484;50.858;4.384;2024-01-11T00:26:45;-1.80;99.90
22635;DHT22;11484;50.858;4.384;2024-01-11T00:29:10;-1.80;99.90
22635;DHT22;11484;50.858;4.384;2024-01-11T00:31:36;-1.60;99.90
22635;DHT22;11484;50.858;4.384;2024-01-11T00:34:03;-1.70;99.90
22635;DHT22;11484;50.858;4.384;2024-01-11T00:36:29;-1.70;99.90
22635;DHT22;11484;50.858;4.384;2024-01-11T00:38:57;-1.80;99.90
22635;DHT22;11484;50.858;4.384;2024-01-11T00:41:24;-1.80;99.90
22635;DHT22;11484;50.858;4.384;2024-01-11T00:43:50;-1.80;99.90
22635;DHT22;11484;50.858;4.384;2024-01-11T00:46:16;-1.80;99.90
22635;DHT22;11484;50.858;4.384;2024-01-11T00:48:42;-1.90;99.90
22635;DHT22;11484;50.858;4.384;2024-01-11T00:51:08;-1.90;99.90
22635;DHT22;11484;50.858;4.384;2024-01-11T00:53:36;-2.00;99.90
22635;DHT22;11484;50.858;4.384;2024-01-11T00:56:02;-2.00;99.90
22635;DHT22;11484;50.858;4.384;2024-01-11T00:58:27;-1.90;99.90
22635;DHT22;11484;50.858;4.384;2024-01-11T01:00:53;-1.80;99.90
22635;DHT22;11484;50.858;4.384;2024-01-11T01:03:25;-1.70;99.90
22635;DHT22;11484;50.858;4.384;2024-01-11T01:05:50;-1.70;99.90
22635;DHT22;11484;50.858;4.384;2024-01-11T01:08:16;-1.60;99.90
22635;DHT22;11484;50.858;4.384;2024-01-11T01:10:42;-1.40;99.90
22635;DHT22;11484;50.858;4.384;2024-01-11T01:13:08;-1.50;99.90
22635;DHT22;11484;50.858;4.384;2024-01-11T01:15:34;-1.40;99.90
22635;DHT22;11484;50.858;4.384;2024-01-11T01:17:59;-1.50;99.90
22635;DHT22;11484;50.858;4.384;2024-01-11T01:20:25;-1.60;99.90
22635;DHT22;11484;50.858;4.384;2024-01-11T01:22:51;-1.80;99.90
22635;DHT22;11484;50.858;4.384;2024-01-11T01:25:17;-1.80;99.90
22635;DHT22;11484;50.858;4.384;2024-01-11T01:27:42;-1.80;99.90
22635;DHT22;11484;50.858;4.384;2024-01-11T01:30:08;-1.80;99.90
22635;DHT22;11484;50.858;4.384;2024-01-11T01:32:34;-1.70;99.90
22635;DHT22;11484;50.858;4.384;2024-01-11T01:35:00;-1.70;99.90
22635;DHT22;11484;50.858;4.384;2024-01-11T01:37:26;-1.80;99.90
22635;DHT22;11484;50.858;4.384;2024-01-11T01:39:51;-1.90;99.90
22635;DHT22;11484;50.858;4.384;2024-01-11T01:42:17;-2.00;99.90
22635;DHT22;11484;50.858;4.384;2024-01-11T01:44:43;-1.90;99.90
22635;DHT22;11484;50.858;4.384;2024-01-11T01:47:09;-2.00;99.90
22635;DHT22;11484;50.858;4.384;2024-01-11T01:49:37;-2.00;99.90
22635;DHT22;11484;50.858;4.384;2024-01-11T01:52:04;-2.00;99.90
22635;DHT22;11484;50.858;4.384;2024-01-11T01:54:31;-1.90;99.90
22635;DHT22;11484;50.858;4.384;2024-01-11T01:56:58;-2.00;99.90
22635;DHT22;11484;50.858;4.384;2024-01-11T01:59:25;-2.00;99.90
22635;DHT22;11484;50.858;4.384;2024-01-11T02:01:51;-1.90;99.90
22635;DHT22;11484;50.858;4.384;2024-01-11T02:04:19;-1.90;99.90
22635;DHT22;11484;50.858;4.384;2024-01-11T02:06:45;-1.90;99.90
22635;DHT22;11484;50.858;4.384;2024-01-11T02:09:12;-1.80;99.90
22635;DHT22;11484;50.858;4.384;2024-01-11T02:11:39;-1.80;99.90
22635;DHT22;11484;50.858;4.384;2024-01-11T02:14:07;-1.80;99.90
22635;DHT22;11484;50.858;4.384;2024-01-11T02:16:32;-2.00;99.90
22635;DHT22;11484;50.858;4.384;2024-01-11T02:18:58;-2.10;99.90
22635;DHT22;11484;50.858;4.384;2024-01-11T02:21:25;-2.20;99.90
22635;DHT22;11484;50.858;4.384;2024-01-11T02:27:03;-2.10;99.90
22635;DHT22;11484;50.858;4.384;2024-01-11T02:29:30;-1.90;99.90
22635;DHT22;11484;50.858;4.384;2024-01-11T02:31:57;-1.90;99.90
22635;DHT22;11484;50.858;4.384;2024-01-11T02:34:25;-1.80;99.90
22635;DHT22;11484;50.858;4.384;2024-01-11T02:36:52;-1.90;99.90
22635;DHT22;11484;50.858;4.384;2024-01-11T02:39:19;-1.80;99.90
22635;DHT22;11484;50.858;4.384;2024-01-11T02:41:45;-1.80;99.90
22635;DHT22;11484;50.858;4.384;2024-01-11T02:44:11;-1.80;99.90
22635;DHT22;11484;50.858;4.384;2024-01-11T02:46:37;-1.60;99.90
22635;DHT22;11484;50.858;4.384;2024-01-11T02:49:03;-2.00;99.90
22635;DHT22;11484;50.858;4.384;2024-01-11T02:51:29;-1.90;99.90
22635;DHT22;11484;50.858;4.384;2024-01-11T02:53:55;-2.00;99.90
22635;DHT22;11484;50.858;4.384;2024-01-11T02:56:20;-2.10;99.90
22635;DHT22;11484;50.858;4.384;2024-01-11T02:58:46;-2.00;99.90
22635;DHT22;11484;50.858;4.384;2024-01-11T03:01:12;-2.00;99.90
22635;DHT22;11484;50.858;4.384;2024-01-11T03:03:37;-1.90;99.90
22635;DHT22;11484;50.858;4.384;2024-01-11T03:06:03;-1.80;99.90
22635;DHT22;11484;50.858;4.384;2024-01-11T03:08:29;-1.80;99.90
22635;DHT22;11484;50.858;4.384;2024-01-11T03:10:55;-1.70;99.90
22635;DHT22;11484;50.858;4.384;2024-01-11T03:13:21;-1.90;99.90
22635;DHT22;11484;50.858;4.384;2024-01-11T03:15:46;-1.80;99.90
22635;DHT22;11484;50.858;4.384;2024-01-11T03:18:12;-1.80;99.90
22635;DHT22;11484;50.858;4.384;2024-01-11T03:20:39;-1.70;99.90
22635;DHT22;11484;50.858;4.384;2024-01-11T03:23:04;-1.90;99.90
22635;DHT22;11484;50.858;4.384;2024-01-11T03:25:31;-1.90;99.90
22635;DHT22;11484;50.858;4.384;2024-01-11T03:27:58;-1.90;99.90
22635;DHT22;11484;50.858;4.384;2024-01-11T03:30:24;-2.00;99.90
22635;DHT22;11484;50.858;4.384;2024-01-11T03:32:50;-2.10;99.90
22635;DHT22;11484;50.858;4.384;2024-01-11T03:35:17;-2.10;99.90
22635;DHT22;11484;50.858;4.384;2024-01-11T03:37:43;-2.00;99.90
22635;DHT22;11484;50.858;4.384;2024-01-11T03:40:10;-1.90;99.90
22635;DHT22;11484;50.858;4.384;2024-01-11T03:42:36;-1.90;99.90
22635;DHT22;11484;50.858;4.384;2024-01-11T03:45:02;-2.00;99.90
22635;DHT22;11484;50.858;4.384;2024-01-11T03:47:28;-1.90;99.90
22635;DHT22;11484;50.858;4.384;2024-01-11T03:49:54;-1.70;99.90
22635;DHT22;11484;50.858;4.384;2024-01-11T03:52:19;-1.70;99.90
22635;DHT22;11484;50.858;4.384;2024-01-11T03:54:46;-1.80;99.90
22635;DHT22;11484;50.858;4.384;2024-01-11T03:57:11;-1.70;99.90
22635;DHT22;11484;50.858;4.384;2024-01-11T03:59:37;-1.70;99.90
22635;DHT22;11484;50.858;4.384;2024-01-11T04:02:03;-1.80;99.90
22635;DHT22;11484;50.858;4.384;2024-01-11T04:04:29;-1.80;99.90
22635;DHT22;11484;50.858;4.384;2024-01-11T04:06:54;-2.00;99.90
22635;DHT22;11484;50.858;4.384;2024-01-11T04:09:20;-2.20;99.90
22635;DHT22;11484;50.858;4.384;2024-01-11T04:11:46;-2.30;99.90
22635;DHT22;11484;50.858;4.384;2024-01-11T04:14:12;-2.20;99.90
22635;DHT22;11484;50.858;4.384;2024-01-11T04:16:44;-2.10;99.90
22635;DHT22;11484;50.858;4.384;2024-01-11T04:19:10;-2.00;99.90
22635;DHT22;11484;50.858;4.384;2024-01-11T04:21:36;-1.80;99.90
22635;DHT22;11484;50.858;4.384;2024-01-11T04:24:05;-1.70;99.90
22635;DHT22;11484;50.858;4.384;2024-01-11T04:26:32;-1.80;99.90
22635;DHT22;11484;50.858;4.384;2024-01-11T04:28:58;-1.90;99.90
22635;DHT22;11484;50.858;4.384;2024-01-11T04:31:25;-1.90;99.90
22635;DHT22;11484;50.858;4.384;2024-01-11T04:33:51;-2.00;99.90
22635;DHT22;11484;50.858;4.384;2024-01-11T04:36:17;-1.90;99.90
22635;DHT22;11484;50.858;4.384;2024-01-11T04:38:43;-1.70;99.90
22635;DHT22;11484;50.858;4.384;2024-01-11T04:41:11;-1.60;99.90
22635;DHT22;11484;50.858;4.384;2024-01-11T04:43:41;-1.60;99.90
22635;DHT22;11484;50.858;4.384;2024-01-11T04:46:18;-1.60;99.90
22635;DHT22;11484;50.858;4.384;2024-01-11T04:48:44;-1.70;99.90
22635;DHT22;11484;50.858;4.384;2024-01-11T04:51:11;-1.70;99.90
22635;DHT22;11484;50.858;4.384;2024-01-11T04:53:38;-1.60;99.90
22635;DHT22;11484;50.858;4.384;2024-01-11T04:56:05;-1.70;99.90
22635;DHT22;11484;50.858;4.384;2024-01-11T04:58:31;-1.80;99.90
22635;DHT22;11484;50.858;4.384;2024-01-11T05:00:57;-1.90;99.90
22635;DHT22;11484;50.858;4.384;2024-01-11T05:03:23;-1.90;99.90
22635;DHT22;11484;50.858;4.384;2024-01-11T05:05:48;-1.90;99.90
22635;DHT22;11484;50.858;4.384;2024-01-11T05:08:14;-2.00;99.90
22635;DHT22;11484;50.858;4.384;2024-01-11T05:10:40;-2.00;99.90
22635;DHT22;11484;50.858;4.384;2024-01-11T05:13:05;-2.00;99.90
22635;DHT22;11484;50.858;4.384;2024-01-11T05:15:31;-2.00;99.90
22635;DHT22;11484;50.858;4.384;2024-01-11T05:17:57;-2.00;99.90
22635;DHT22;11484;50.858;4.384;2024-01-11T05:20:23;-2.10;99.90
22635;DHT22;11484;50.858;4.384;2024-01-11T05:22:49;-2.10;99.90
22635;DHT22;11484;50.858;4.384;2024-01-11T05:25:15;-2.10;99.90
22635;DHT22;11484;50.858;4.384;2024-01-11T05:27:40;-2.20;99.90
22635;DHT22;11484;50.858;4.384;2024-01-11T05:30:07;-2.10;99.90
22635;DHT22;11484;50.858;4.384;2024-01-11T05:32:32;-2.10;99.90
22635;DHT22;11484;50.858;4.384;2024-01-11T05:34:58;-2.20;99.90
22635;DHT22;11484;50.858;4.384;2024-01-11T05:37:24;-2.10;99.90
22635;DHT22;11484;50.858;4.384;2024-01-11T05:39:49;-2.10;99.90
22635;DHT22;11484;50.858;4.384;2024-01-11T05:42:15;-2.10;99.90
22635;DHT22;11484;50.858;4.384;2024-01-11T05:44:41;-2.20;99.90
22635;DHT22;11484;50.858;4.384;2024-01-11T05:47:07;-2.20;99.90
22635;DHT22;11484;50.858;4.384;2024-01-11T05:49:33;-2.20;99.90
22635;DHT22;11484;50.858;4.384;2024-01-11T05:51:58;-2.40;99.90
22635;DHT22;11484;50.858;4.384;2024-01-11T05:54:24;-2.30;99.90
22635;DHT22;11484;50.858;4.384;2024-01-11T05:56:52;-2.30;99.90
22635;DHT22;11484;50.858;4.384;2024-01-11T05:59:22;-2.30;99.90
22635;DHT22;11484;50.858;4.384;2024-01-11T06:01:48;-2.30;99.90
22635;DHT22;11484;50.858;4.384;2024-01-11T06:04:14;-2.40;99.90
22635;DHT22;11484;50.858;4.384;2024-01-11T06:06:40;-2.30;99.90
22635;DHT22;11484;50.858;4.384;2024-01-11T06:09:06;-2.20;99.90
22635;DHT22;11484;50.858;4.384;2024-01-11T06:11:32;-2.20;99.90
22635;DHT22;11484;50.858;4.384;2024-01-11T06:13:58;-2.10;99.90
22635;DHT22;11484;50.858;4.384;2024-01-11T06:16:23;-2.10;99.90
22635;DHT22;11484;50.858;4.384;2024-01-11T06:18:50;-2.20;99.90
22635;DHT22;11484;50.858;4.384;2024-01-11T06:21:16;-2.40;99.90
22635;DHT22;11484;50.858;4.384;2024-01-11T06:23:43;-2.50;99.90
22635;DHT22;11484;50.858;4.384;2024-01-11T06:26:09;-2.60;99.90
22635;DHT22;11484;50.858;4.384;2024-01-11T06:28:35;-2.60;99.90
22635;DHT22;11484;50.858;4.384;2024-01-11T06:31:01;-2.70;99.90
22635;DHT22;11484;50.858;4.384;2024-01-11T06:33:27;-2.80;99.90
22635;DHT22;11484;50.858;4.384;2024-01-11T06:35:55;-2.60;99.90
22635;DHT22;11484;50.858;4.384;2024-01-11T06:38:24;-2.50;99.90
22635;DHT22;11484;50.858;4.384;2024-01-11T06:40:50;-2.60;99.90
22635;DHT22;11484;50.858;4.384;2024-01-11T06:43:15;-2.60;99.90
22635;DHT22;11484;50.858;4.384;2024-01-11T06:45:44;-2.60;99.90
22635;DHT22;11484;50.858;4.384;2024-01-11T06:48:11;-2.60;99.90
22635;DHT22;11484;50.858;4.384;2024-01-11T06:50:37;-2.80;99.90
22635;DHT22;11484;50.858;4.384;2024-01-11T06:53:03;-2.90;99.90
22635;DHT22;11484;50.858;4.384;2024-01-11T06:55:30;-2.90;99.90
22635;DHT22;11484;50.858;4.384;2024-01-11T06:57:56;-3.00;99.90
22635;DHT22;11484;50.858;4.384;2024-01-11T07:00:23;-3.00;99.90
22635;DHT22;11484;50.858;4.384;2024-01-11T07:02:49;-3.00;99.90
22635;DHT22;11484;50.858;4.384;2024-01-11T07:05:15;-2.90;99.90
22635;DHT22;11484;50.858;4.384;2024-01-11T07:07:42;-3.00;99.90
22635;DHT22;11484;50.858;4.384;2024-01-11T07:10:08;-3.10;99.90
22635;DHT22;11484;50.858;4.384;2024-01-11T07:12:34;-3.10;99.90
22635;DHT22;11484;50.858;4.384;2024-01-11T07:15:00;-3.10;99.90
22635;DHT22;11484;50.858;4.384;2024-01-11T07:17:25;-3.10;99.90
22635;DHT22;11484;50.858;4.384;2024-01-11T07:19:51;-3.20;99.90
22635;DHT22;11484;50.858;4.384;2024-01-11T07:22:17;-3.30;99.90
22635;DHT22;11484;50.858;4.384;2024-01-11T07:24:42;-3.20;99.90
22635;DHT22;11484;50.858;4.384;2024-01-11T07:27:08;-3.20;99.90
22635;DHT22;11484;50.858;4.384;2024-01-11T07:29:34;-3.10;99.90
22635;DHT22;11484;50.858;4.384;2024-01-11T07:32:00;-3.10;99.90
22635;DHT22;11484;50.858;4.384;2024-01-11T07:34:27;-3.10;99.90
22635;DHT22;11484;50.858;4.384;2024-01-11T07:36:53;-3.10;99.90
22635;DHT22;11484;50.858;4.384;2024-01-11T07:39:19;-3.10;99.90
22635;DHT22;11484;50.858;4.384;2024-01-11T07:41:45;-3.00;99.90
22635;DHT22;11484;50.858;4.384;2024-01-11T07:44:11;-3.20;99.90
22635;DHT22;11484;50.858;4.384;2024-01-11T07:46:36;-3.20;99.90
22635;DHT22;11484;50.858;4.384;2024-01-11T07:49:03;-3.00;99.90
22635;DHT22;11484;50.858;4.384;2024-01-11T07:51:29;-3.00;99.90
22635;DHT22;11484;50.858;4.384;2024-01-11T07:53:54;-3.00;99.90
22635;DHT22;11484;50.858;4.384;2024-01-11T07:56:20;-2.90;99.90
22635;DHT22;11484;50.858;4.384;2024-01-11T07:58:46;-2.90;99.90
22635;DHT22;11484;50.858;4.384;2024-01-11T08:01:15;-2.80;99.90
22635;DHT22;11484;50.858;4.384;2024-01-11T08:03:44;-2.60;99.90
22635;DHT22;11484;50.858;4.384;2024-01-11T08:06:13;-2.50;99.90
22635;DHT22;11484;50.858;4.384;2024-01-11T08:08:39;-2.80;99.90
22635;DHT22;11484;50.858;4.384;2024-01-11T08:11:08;-2.80;99.90
22635;DHT22;11484;50.858;4.384;2024-01-11T08:13:34;-2.90;99.90
22635;DHT22;11484;50.858;4.384;2024-01-11T08:16:04;-2.80;99.90
22635;DHT22;11484;50.858;4.384;2024-01-11T08:18:33;-3.00;99.90
22635;DHT22;11484;50.858;4.384;2024-01-11T08:20:59;-3.00;99.90
22635;DHT22;11484;50.858;4.384;2024-01-11T08:23:24;-2.90;99.90
22635;DHT22;11484;50.858;4.384;2024-01-11T08:25:50;-2.80;99.90
22635;DHT22;11484;50.858;4.384;2024-01-11T08:28:16;-2.60;99.90
22635;DHT22;11484;50.858;4.384;2024-01-11T08:30:42;-2.60;99.90
22635;DHT22;11484;50.858;4.384;2024-01-11T08:33:08;-2.50;99.90
22635;DHT22;11484;50.858;4.384;2024-01-11T08:35:37;-2.50;99.90
22635;DHT22;11484;50.858;4.384;2024-01-11T08:38:05;-2.50;99.90
22635;DHT22;11484;50.858;4.384;2024-01-11T08:40:30;-2.50;99.90
22635;DHT22;11484;50.858;4.384;2024-01-11T08:42:57;-2.50;99.90
22635;DHT22;11484;50.858;4.384;2024-01-11T08:45:23;-2.50;99.90
22635;DHT22;11484;50.858;4.384;2024-01-11T08:47:49;-2.50;99.90
22635;DHT22;11484;50.858;4.384;2024-01-11T08:50:15;-2.30;99.90
22635;DHT22;11484;50.858;4.384;2024-01-11T08:52:42;-2.20;99.90
22635;DHT22;11484;50.858;4.384;2024-01-11T08:55:08;-2.00;99.90
22635;DHT22;11484;50.858;4.384;2024-01-11T08:57:34;-2.10;99.90
22635;DHT22;11484;50.858;4.384;2024-01-11T09:00:02;-2.10;99.90
22635;DHT22;11484;50.858;4.384;2024-01-11T09:02:29;-2.20;99.90
22635;DHT22;11484;50.858;4.384;2024-01-11T09:04:55;-2.30;99.90
22635;DHT22;11484;50.858;4.384;2024-01-11T09:07:20;-2.30;99.90
22635;DHT22;11484;50.858;4.384;2024-01-11T09:09:46;-2.20;99.90
22635;DHT22;11484;50.858;4.384;2024-01-11T09:12:12;-2.20;99.90
22635;DHT22;11484;50.858;4.384;2024-01-11T09:14:38;-2.10;99.90
22635;DHT22;11484;50.858;4.384;2024-01-11T09:17:05;-2.00;99.90
22635;DHT22;11484;50.858;4.384;2024-01-11T09:19:32;-2.20;99.90
22635;DHT22;11484;50.858;4.384;2024-01-11T09:21:59;-2.20;99.90
22635;DHT22;11484;50.858;4.384;2024-01-11T09:24:25;-2.20;99.90
22635;DHT22;11484;50.858;4.384;2024-01-11T09:26:51;-2.10;99.90
22635;DHT22;11484;50.858;4.384;2024-01-11T09:29:17;-2.30;99.90
22635;DHT22;11484;50.858;4.384;2024-01-11T09:31:43;-2.30;99.90
22635;DHT22;11484;50.858;4.384;2024-01-11T09:34:08;-2.30;99.90
22635;DHT22;11484;50.858;4.384;2024-01-11T09:36:35;-2.40;99.90
22635;DHT22;11484;50.858;4.384;2024-01-11T09:39:04;-2.40;99.90
22635;DHT22;11484;50.858;4.384;2024-01-11T09:41:31;-2.30;99.90
22635;DHT22;11484;50.858;4.384;2024-01-11T09:44:00;-2.20;99.90
22635;DHT22;11484;50.858;4.384;2024-01-11T09:46:27;-2.20;99.90
22635;DHT22;11484;50.858;4.384;2024-01-11T09:48:54;-2.30;99.90
22635;DHT22;11484;50.858;4.384;2024-01-11T09:51:21;-2.20;99.90
22635;DHT22;11484;50.858;4.384;2024-01-11T09:53:49;-2.10;99.90
22635;DHT22;11484;50.858;4.384;2024-01-11T09:56:16;-2.00;99.90
22635;DHT22;11484;50.858;4.384;2024-01-11T09:58:46;-2.00;99.90
22635;DHT22;11484;50.858;4.384;2024-01-11T10:01:16;-2.10;99.90
22635;DHT22;11484;50.858;4.384;2024-01-11T10:03:45;-2.00;99.90
22635;DHT22;11484;50.858;4.384;2024-01-11T10:06:14;-1.80;99.90
22635;DHT22;11484;50.858;4.384;2024-01-11T10:08:41;-1.80;99.90
22635;DHT22;11484;50.858;4.384;2024-01-11T10:11:07;-1.60;99.90
22635;DHT22;11484;50.858;4.384;2024-01-11T10:13:33;-1.60;99.90
22635;DHT22;11484;50.858;4.384;2024-01-11T10:16:11;-1.50;99.90
22635;DHT22;11484;50.858;4.384;2024-01-11T10:18:41;-1.40;99.90
22635;DHT22;11484;50.858;4.384;2024-01-11T10:21:07;-1.40;99.90
22635;DHT22;11484;50.858;4.384;2024-01-11T10:23:35;-1.30;99.90
22635;DHT22;11484;50.858;4.384;2024-01-11T10:26:01;-1.10;99.90
22635;DHT22;11484;50.858;4.384;2024-01-11T10:28:28;-0.90;99.90
22635;DHT22;11484;50.858;4.384;2024-01-11T10:30:54;-0.80;99.90
22635;DHT22;11484;50.858;4.384;2024-01-11T10:33:21;-0.70;99.90
22635;DHT22;11484;50.858;4.384;2024-01-11T10:35:50;-0.50;99.90
22635;DHT22;11484;50.858;4.384;2024-01-11T10:38:16;-0.40;99.90
22635;DHT22;11484;50.858;4.384;2024-01-11T10:40:44;-0.30;99.90
22635;DHT22;11484;50.858;4.384;2024-01-11T10:43:11;-0.30;99.90
22635;DHT22;11484;50.858;4.384;2024-01-11T10:45:41;-0.30;99.90
22635;DHT22;11484;50.858;4.384;2024-01-11T10:48:13;-0.30;99.90
22635;DHT22;11484;50.858;4.384;2024-01-11T10:50:42;-0.30;99.90
22635;DHT22;11484;50.858;4.384;2024-01-11T10:55:41;-0.20;99.90
22635;DHT22;11484;50.858;4.384;2024-01-11T10:58:08;-0.30;99.90
22635;DHT22;11484;50.858;4.384;2024-01-11T11:00:36;-0.40;99.90
22635;DHT22;11484;50.858;4.384;2024-01-11T11:03:02;-0.40;99.90
22635;DHT22;11484;50.858;4.384;2024-01-11T11:05:30;-0.50;99.90
22635;DHT22;11484;50.858;4.384;2024-01-11T11:07:56;-0.60;99.90
22635;DHT22;11484;50.858;4.384;2024-01-11T11:10:24;-0.50;99.90
22635;DHT22;11484;50.858;4.384;2024-01-11T11:12:51;-0.40;99.90
22635;DHT22;11484;50.858;4.384;2024-01-11T11:15:19;-0.30;99.90
22635;DHT22;11484;50.858;4.384;2024-01-11T11:17:49;-0.20;99.90
22635;DHT22;11484;50.858;4.384;2024-01-11T11:20:15;-0.10;99.90
22635;DHT22;11484;50.858;4.384;2024-01-11T11:22:42;0.00;99.90
22635;DHT22;11484;50.858;4.384;2024-01-11T11:25:24;0.10;99.90
22635;DHT22;11484;50.858;4.384;2024-01-11T11:27:50;0.10;99.90
22635;DHT22;11484;50.858;4.384;2024-01-11T11:30:19;0.20;99.90
22635;DHT22;11484;50.858;4.384;2024-01-11T11:32:45;0.20;99.90
22635;DHT22;11484;50.858;4.384;2024-01-11T11:35:11;0.30;99.90
22635;DHT22;11484;50.858;4.384;2024-01-11T11:37:38;0.40;99.90
22635;DHT22;11484;50.858;4.384;2024-01-11T11:40:05;0.40;99.90
22635;DHT22;11484;50.858;4.384;2024-01-11T11:42:33;0.50;99.90
22635;DHT22;11484;50.858;4.384;2024-01-11T11:44:59;0.60;99.90
22635;DHT22;11484;50.858;4.384;2024-01-11T11:47:34;0.60;99.90
22635;DHT22;11484;50.858;4.384;2024-01-11T11:50:10;0.50;99.90
22635;DHT22;11484;50.858;4.384;2024-01-11T11:52:38;0.60;99.90
22635;DHT22;11484;50.858;4.384;2024-01-11T11:55:06;0.70;99.90
22635;DHT22;11484;50.858;4.384;2024-01-11T11:57:35;0.70;99.90
22635;DHT22;11484;50.858;4.384;2024-01-11T12:00:01;0.70;99.90
22635;DHT22;11484;50.858;4.384;2024-01-11T12:02:31;0.60;99.90
22635;DHT22;11484;50.858;4.384;2024-01-11T12:04:58;0.60;99.90
22635;DHT22;11484;50.858;4.384;2024-01-11T12:07:24;0.70;99.90
22635;DHT22;11484;50.858;4.384;2024-01-11T12:09:51;0.60;99.90
22635;DHT22;11484;50.858;4.384;2024-01-11T12:12:18;0.60;99.90
22635;DHT22;11484;50.858;4.384;2024-01-11T12:14:49;0.60;99.90
22635;DHT22;11484;50.858;4.384;2024-01-11T12:17:15;0.70;99.90
22635;DHT22;11484;50.858;4.384;2024-01-11T12:19:41;0.90;99.90
22635;DHT22;11484;50.858;4.384;2024-01-11T12:22:07;0.90;99.90
22635;DHT22;11484;50.858;4.384;2024-01-11T12:24:33;0.90;99.90
22635;DHT22;11484;50.858;4.384;2024-01-11T12:27:02;1.00;99.90
22635;DHT22;11484;50.858;4.384;2024-01-11T12:29:29;1.00;99.90
22635;DHT22;11484;50.858;4.384;2024-01-11T12:31:57;1.10;99.90
22635;DHT22;11484;50.858;4.384;2024-01-11T12:34:26;1.00;99.90
22635;DHT22;11484;50.858;4.384;2024-01-11T12:36:53;1.00;99.90
22635;DHT22;11484;50.858;4.384;2024-01-11T12:39:21;1.10;99.90
22635;DHT22;11484;50.858;4.384;2024-01-11T12:41:49;1.10;99.90
22635;DHT22;11484;50.858;4.384;2024-01-11T12:44:17;1.20;99.90
22635;DHT22;11484;50.858;4.384;2024-01-11T12:46:44;1.20;99.90
22635;DHT22;11484;50.858;4.384;2024-01-11T12:49:10;1.20;99.90
22635;DHT22;11484;50.858;4.384;2024-01-11T12:51:36;1.30;99.90
22635;DHT22;11484;50.858;4.384;2024-01-11T12:54:02;1.30;99.90
22635;DHT22;11484;50.858;4.384;2024-01-11T12:56:30;1.20;99.90
22635;DHT22;11484;50.858;4.384;2024-01-11T12:59:08;1.30;99.90
22635;DHT22;11484;50.858;4.384;2024-01-11T13:01:36;1.50;99.90
22635;DHT22;11484;50.858;4.384;2024-01-11T13:04:02;1.60;99.90
22635;DHT22;11484;50.858;4.384;2024-01-11T13:06:30;1.60;99.90
22635;DHT22;11484;50.858;4.384;2024-01-11T13:08:56;1.50;99.90
22635;DHT22;11484;50.858;4.384;2024-01-11T13:11:22;1.50;99.90
22635;DHT22;11484;50.858;4.384;2024-01-11T13:13:50;1.60;99.90
22635;DHT22;11484;50.858;4.384;2024-01-11T13:16:18;1.70;99.90
22635;DHT22;11484;50.858;4.384;2024-01-11T13:18:45;1.70;99.90
22635;DHT22;11484;50.858;4.384;2024-01-11T13:21:11;1.80;99.90
22635;DHT22;11484;50.858;4.384;2024-01-11T13:23:39;1.70;99.90
22635;DHT22;11484;50.858;4.384;2024-01-11T13:26:07;1.80;99.90
22635;DHT22;11484;50.858;4.384;2024-01-11T13:28:35;1.70;99.90
22635;DHT22;11484;50.858;4.384;2024-01-11T13:31:01;1.80;99.90
22635;DHT22;11484;50.858;4.384;2024-01-11T13:33:28;1.80;99.90
22635;DHT22;11484;50.858;4.384;2024-01-11T13:35:54;1.90;99.90
22635;DHT22;11484;50.858;4.384;2024-01-11T13:38:20;2.00;99.90
22635;DHT22;11484;50.858;4.384;2024-01-11T13:40:46;2.00;99.90
22635;DHT22;11484;50.858;4.384;2024-01-11T13:43:12;1.80;99.90
22635;DHT22;11484;50.858;4.384;2024-01-11T13:45:37;1.90;99.90
22635;DHT22;11484;50.858;4.384;2024-01-11T13:48:04;2.00;99.90
22635;DHT22;11484;50.858;4.384;2024-01-11T13:50:30;2.20;99.90
22635;DHT22;11484;50.858;4.384;2024-01-11T13:52:56;2.20;99.90
22635;DHT22;11484;50.858;4.384;2024-01-11T13:55:22;2.10;99.90
22635;DHT22;11484;50.858;4.384;2024-01-11T13:57:49;2.10;99.90
22635;DHT22;11484;50.858;4.384;2024-01-11T14:00:15;2.10;99.90
22635;DHT22;11484;50.858;4.384;2024-01-11T14:02:47;2.20;99.90
22635;DHT22;11484;50.858;4.384;2024-01-11T14:05:13;2.30;99.90
22635;DHT22;11484;50.858;4.384;2024-01-11T14:07:41;2.40;99.90
22635;DHT22;11484;50.858;4.384;2024-01-11T14:10:08;2.40;99.90
22635;DHT22;11484;50.858;4.384;2024-01-11T14:12:35;2.40;99.90
22635;DHT22;11484;50.858;4.384;2024-01-11T14:15:06;2.40;99.90
22635;DHT22;11484;50.858;4.384;2024-01-11T14:17:33;2.40;99.90
22635;DHT22;11484;50.858;4.384;2024-01-11T14:19:59;2.40;99.90
22635;DHT22;11484;50.858;4.384;2024-01-11T14:22:26;2.40;99.90
22635;DHT22;11484;50.858;4.384;2024-01-11T14:24:52;2.40;99.90
22635;DHT22;11484;50.858;4.384;2024-01-11T14:27:19;2.40;99.90
22635;DHT22;11484;50.858;4.384;2024-01-11T14:29:46;2.40;99.90
22635;DHT22;11484;50.858;4.384;2024-01-11T14:32:11;2.40;99.90
22635;DHT22;11484;50.858;4.384;2024-01-11T14:34:42;2.40;99.90
22635;DHT22;11484;50.858;4.384;2024-01-11T14:37:11;2.30;99.90
22635;DHT22;11484;50.858;4.384;2024-01-11T14:39:37;2.20;99.90
22635;DHT22;11484;50.858;4.384;2024-01-11T14:42:03;2.30;99.90
22635;DHT22;11484;50.858;4.384;2024-01-11T14:44:29;2.40;99.90
22635;DHT22;11484;50.858;4.384;2024-01-11T14:46:55;2.50;99.90
22635;DHT22;11484;50.858;4.384;2024-01-11T14:49:21;2.50;99.90
22635;DHT22;11484;50.858;4.384;2024-01-11T14:51:49;2.50;99.90
22635;DHT22;11484;50.858;4.384;2024-01-11T14:54:15;2.50;99.90
22635;DHT22;11484;50.858;4.384;2024-01-11T14:56:42;2.50;99.90
22635;DHT22;11484;50.858;4.384;2024-01-11T14:59:08;2.50;99.90
22635;DHT22;11484;50.858;4.384;2024-01-11T15:01:35;2.50;99.90
22635;DHT22;11484;50.858;4.384;2024-01-11T15:04:00;2.80;99.90
22635;DHT22;11484;50.858;4.384;2024-01-11T15:06:26;2.70;99.90
22635;DHT22;11484;50.858;4.384;2024-01-11T15:08:52;2.70;99.90
22635;DHT22;11484;50.858;4.384;2024-01-11T15:11:18;2.70;99.90
22635;DHT22;11484;50.858;4.384;2024-01-11T15:13:44;2.50;99.90
22635;DHT22;11484;50.858;4.384;2024-01-11T15:16:09;2.60;99.90
22635;DHT22;11484;50.858;4.384;2024-01-11T15:18:35;2.60;99.90
22635;DHT22;11484;50.858;4.384;2024-01-11T15:21:01;2.50;99.90
22635;DHT22;11484;50.858;4.384;2024-01-11T15:23:27;2.40;99.90
22635;DHT22;11484;50.858;4.384;2024-01-11T15:25:53;2.40;99.90
22635;DHT22;11484;50.858;4.384;2024-01-11T15:28:18;2.50;99.90
22635;DHT22;11484;50.858;4.384;2024-01-11T15:30:44;2.60;99.90
22635;DHT22;11484;50.858;4.384;2024-01-11T15:33:10;2.70;99.90
22635;DHT22;11484;50.858;4.384;2024-01-11T15:35:35;2.60;99.90
22635;DHT22;11484;50.858;4.384;2024-01-11T15:38:01;2.60;99.90